| time (UTC) | temp C | wind direction | speed KPH | gust KPH | rain 1hr cm | rain 24hr cm | rain mn cm | humidity % | barometer mb |
| 20260505181548 | 25 | 229 | 32.2 | 0.0 | 0.00 | 0.00 | 0.00 | 41 | 1001.4 |
| 20260505181048 | 25 | 243 | 29.0 | 0.0 | 0.00 | 0.00 | 0.00 | 38 | 1001.5 |
| 20260505180547 | 25 | 224 | 37.0 | 0.0 | 0.00 | 0.00 | 0.00 | 39 | 1001.5 |
| 20260505180049 | 25 | 203 | 40.2 | 0.0 | 0.00 | 0.00 | 0.00 | 39 | 1001.5 |
| 20260505175547 | 25 | 222 | 33.8 | 0.0 | 0.00 | 0.00 | 0.00 | 40 | 1001.5 |
| 20260505175047 | 25 | 232 | 33.8 | 0.0 | 0.00 | 0.00 | 0.00 | 39 | 1001.5 |
| 20260505174550 | 25 | 227 | 35.4 | 0.0 | 0.00 | 0.00 | 0.00 | 37 | 1001.6 |
| 20260505174047 | 26 | 212 | 32.2 | 0.0 | 0.00 | 0.00 | 0.00 | 37 | 1001.6 |
| 20260505173545 | 26 | 205 | 32.2 | 0.0 | 0.00 | 0.00 | 0.00 | 37 | 1001.7 |
| 20260505173049 | 26 | 360 | 37.0 | 0.0 | 0.00 | 0.00 | 0.00 | 38 | 1001.7 |
| 20260505172548 | 26 | 229 | 37.0 | 0.0 | 0.00 | 0.00 | 0.00 | 38 | 1001.8 |
| 20260505172044 | 27 | 234 | 35.4 | 0.0 | 0.00 | 0.00 | 0.00 | 37 | 1001.7 |
| 20260505171543 | 26 | 219 | 33.8 | 0.0 | 0.00 | 0.00 | 0.00 | 39 | 1001.9 |
| 20260505171042 | 26 | 236 | 38.6 | 0.0 | 0.00 | 0.00 | 0.00 | 39 | 1001.9 |
| 20260505170541 | 26 | 229 | 37.0 | 0.0 | 0.00 | 0.00 | 0.00 | 41 | 1002.0 |
| 20260505170041 | 26 | 207 | 37.0 | 0.0 | 0.00 | 0.00 | 0.00 | 41 | 1002.2 |
| 20260505165539 | 26 | 55 | 40.2 | 0.0 | 0.00 | 0.00 | 0.00 | 41 | 1002.4 |
| 20260505165039 | 26 | 232 | 29.0 | 0.0 | 0.00 | 0.00 | 0.00 | 41 | 1002.3 |
| 20260505164549 | 26 | 219 | 25.7 | 0.0 | 0.00 | 0.00 | 0.00 | 44 | 1002.4 |
| 20260505164038 | 26 | 219 | 32.2 | 0.0 | 0.00 | 0.00 | 0.00 | 40 | 1002.4 |
| 20260505163534 | 26 | 221 | 33.8 | 0.0 | 0.00 | 0.00 | 0.00 | 39 | 1002.5 |
| 20260505163033 | 25 | 215 | 38.6 | 0.0 | 0.00 | 0.00 | 0.00 | 45 | 1002.6 |
| 20260505162532 | 25 | 200 | 40.2 | 0.0 | 0.00 | 0.00 | 0.00 | 43 | 1002.7 |
| 20260505162032 | 25 | 253 | 38.6 | 0.0 | 0.00 | 0.00 | 0.00 | 45 | 1002.7 |
| 20260505161531 | 25 | 211 | 35.4 | 0.0 | 0.00 | 0.00 | 0.00 | 45 | 1002.9 |
| 20260505161030 | 25 | 246 | 30.6 | 0.0 | 0.00 | 0.00 | 0.00 | 49 | 1003.0 |
| 20260505160528 | 24 | 216 | 30.6 | 0.0 | 0.00 | 0.00 | 0.00 | 48 | 1003.0 |
| 20260505153018 | 22 | 223 | 25.7 | 0.0 | 0.00 | 0.00 | 0.00 | 60 | 1003.6 |
| 20260505152517 | 21 | 250 | 24.1 | 0.0 | 0.00 | 0.00 | 0.00 | 60 | 1003.7 |
| 20260505152015 | 21 | 202 | 19.3 | 0.0 | 0.00 | 0.00 | 0.00 | 62 | 1003.9 |
| 20260505151517 | 20 | 219 | 16.1 | 0.0 | 0.00 | 0.00 | 0.00 | 64 | 1003.8 |
| 20260505151012 | 18 | 222 | 14.5 | 0.0 | 0.00 | 0.00 | 0.00 | 67 | 1004.0 |
| 20260505150511 | 18 | 228 | 14.5 | 0.0 | 0.00 | 0.00 | 0.00 | 72 | 1004.0 |
| 20260505140504 | 13 | 317 | 4.8 | 0.0 | 0.00 | 0.00 | 0.00 | 84 | 1004.6 |
| 20260505124559 | 15 | 212 | 6.4 | 0.0 | 0.00 | 0.00 | 0.00 | 74 | 1005.2 |
| 20260505124059 | 15 | 133 | 8.0 | 0.0 | 0.00 | 0.00 | 0.00 | 73 | 1004.9 |
| 20260505123557 | 15 | 138 | 9.7 | 0.0 | 0.00 | 0.00 | 0.00 | 74 | 1004.8 |
| 20260505123104 | 14 | 143 | 8.0 | 0.0 | 0.00 | 0.00 | 0.00 | 74 | 1004.8 |
| 20260505122557 | 14 | 133 | 8.0 | 0.0 | 0.00 | 0.00 | 0.00 | 74 | 1004.9 |
| 20260505122053 | 13 | 149 | 9.7 | 0.0 | 0.00 | 0.00 | 0.00 | 75 | 1004.9 |
| 20260505121553 | 13 | 150 | 9.7 | 0.0 | 0.00 | 0.00 | 0.00 | 75 | 1004.9 |
| 20260505121051 | 13 | 136 | 11.3 | 0.0 | 0.00 | 0.00 | 0.00 | 77 | 1005.0 |
| 20260505120550 | 13 | 161 | 12.9 | 0.0 | 0.00 | 0.00 | 0.00 | 78 | 1005.1 |
| 20260505120048 | 12 | 132 | 12.9 | 0.0 | 0.00 | 0.00 | 0.00 | 78 | 1005.1 |
| 20260505115548 | 12 | 131 | 12.9 | 0.0 | 0.00 | 0.00 | 0.00 | 80 | 1005.1 |
| 20260505115046 | 12 | 153 | 9.7 | 0.0 | 0.00 | 0.00 | 0.00 | 81 | 1005.4 |
| 20260505114547 | 11 | 125 | 4.8 | 0.0 | 0.00 | 0.00 | 0.00 | 85 | 1005.4 |
| 20260505114046 | 11 | 284 | 4.8 | 0.0 | 0.00 | 0.00 | 0.00 | 86 | 1005.4 |
| 20260505113545 | 11 | 284 | 4.8 | 0.0 | 0.00 | 0.00 | 0.00 | 87 | 1005.4 |
| 20260505113044 | 11 | 306 | 3.2 | 0.0 | 0.00 | 0.00 | 0.00 | 87 | 1005.4 |
| 20260505112544 | 11 | 306 | 4.8 | 0.0 | 0.00 | 0.00 | 0.00 | 87 | 1005.3 |
| 20260505112043 | 11 | 309 | 4.8 | 0.0 | 0.00 | 0.00 | 0.00 | 87 | 1005.3 |
| 20260505111551 | 11 | 309 | 4.8 | 0.0 | 0.00 | 0.00 | 0.00 | 86 | 1005.2 |
| 20260505111041 | 11 | 294 | 4.8 | 0.0 | 0.00 | 0.00 | 0.00 | 85 | 1005.0 |
| 20260505110540 | 11 | 294 | 4.8 | 0.0 | 0.00 | 0.00 | 0.00 | 86 | 1004.9 |
| 20260505102039 | 11 | 123 | 9.7 | 0.0 | 0.00 | 0.00 | 0.00 | 82 | 1004.7 |
| 20260505101539 | 11 | 128 | 8.0 | 0.0 | 0.00 | 0.00 | 0.00 | 82 | 1004.8 |
| 20260505101042 | 10 | 144 | 6.4 | 0.0 | 0.00 | 0.00 | 0.00 | 82 | 1004.9 |
| 20260505100542 | 10 | 159 | 8.0 | 0.0 | 0.00 | 0.00 | 0.00 | 81 | 1004.8 |
| 20260505100048 | 10 | 161 | 6.4 | 0.0 | 0.00 | 0.00 | 0.00 | 84 | 1004.9 |
| 20260505095541 | 10 | 157 | 0.0 | 0.0 | 0.00 | 0.00 | 0.00 | 84 | 1004.9 |
| 20260505095038 | 10 | 339 | 0.0 | 0.0 | 0.00 | 0.00 | 0.00 | 84 | 1004.8 |
| 20260505094539 | 10 | 339 | 0.0 | 0.0 | 0.00 | 0.00 | 0.00 | 83 | 1004.8 |
| 20260505094037 | 10 | 339 | 0.0 | 0.0 | 0.00 | 0.00 | 0.00 | 83 | 1004.4 |
| 20260505093538 | 10 | 339 | 0.0 | 0.0 | 0.00 | 0.00 | 0.00 | 80 | 1004.6 |
| 20260505093039 | 10 | 339 | 0.0 | 0.0 | 0.00 | 0.00 | 0.00 | 81 | 1004.7 |
| 20260505092537 | 11 | 339 | 0.0 | 0.0 | 0.00 | 0.00 | 0.00 | 81 | 1004.6 |
| 20260505092036 | 11 | 339 | 1.6 | 0.0 | 0.00 | 0.00 | 0.00 | 81 | 1004.7 |
| 20260505091551 | 11 | 339 | 3.2 | 0.0 | 0.00 | 0.00 | 0.00 | 81 | 1004.7 |
| 20260505091039 | 11 | 341 | 1.6 | 0.0 | 0.00 | 0.00 | 0.00 | 82 | 1004.6 |
| 20260505090538 | 11 | 341 | 1.6 | 0.0 | 0.00 | 0.00 | 0.00 | 82 | 1004.4 |
| 20260505090050 | 11 | 341 | 4.8 | 0.0 | 0.00 | 0.00 | 0.00 | 83 | 1004.6 |
| 20260505085534 | 11 | 338 | 6.4 | 0.0 | 0.00 | 0.00 | 0.00 | 82 | 1004.7 |
| 20260505085034 | 11 | 338 | 6.4 | 0.0 | 0.00 | 0.00 | 0.00 | 80 | 1004.8 |
| 20260505084537 | 11 | 329 | 3.2 | 0.0 | 0.00 | 0.00 | 0.00 | 80 | 1004.8 |
| 20260505084034 | 12 | 178 | 0.0 | 0.0 | 0.00 | 0.00 | 0.00 | 75 | 1004.8 |
| 20260505083534 | 12 | 178 | 1.6 | 0.0 | 0.00 | 0.00 | 0.00 | 74 | 1004.7 |
| 20260505083041 | 12 | 178 | 1.6 | 0.0 | 0.00 | 0.00 | 0.00 | 73 | 1004.9 |
| 20260505082533 | 12 | 66 | 1.6 | 0.0 | 0.00 | 0.00 | 0.00 | 70 | 1005.0 |
| 20260505082033 | 12 | 66 | 3.2 | 0.0 | 0.00 | 0.00 | 0.00 | 70 | 1005.0 |
| 20260505081550 | 12 | 308 | 8.0 | 0.0 | 0.00 | 0.00 | 0.00 | 70 | 1005.0 |
| 20260505081032 | 12 | 123 | 11.3 | 0.0 | 0.00 | 0.00 | 0.00 | 68 | 1004.9 |
| 20260505080534 | 12 | 139 | 12.9 | 0.0 | 0.00 | 0.00 | 0.00 | 67 | 1004.7 |
| 20260505080039 | 12 | 145 | 12.9 | 0.0 | 0.00 | 0.00 | 0.00 | 68 | 1004.7 |
| 20260505075529 | 11 | 132 | 11.3 | 0.0 | 0.00 | 0.00 | 0.00 | 69 | 1004.7 |
| 20260505075028 | 11 | 132 | 12.9 | 0.0 | 0.00 | 0.00 | 0.00 | 68 | 1004.7 |
| 20260505074528 | 11 | 142 | 12.9 | 0.0 | 0.00 | 0.00 | 0.00 | 69 | 1004.7 |
| 20260505074027 | 11 | 124 | 11.3 | 0.0 | 0.00 | 0.00 | 0.00 | 70 | 1004.7 |
| 20260505073527 | 11 | 135 | 11.3 | 0.0 | 0.00 | 0.00 | 0.00 | 71 | 1004.7 |
| 20260505073024 | 11 | 138 | 11.3 | 0.0 | 0.00 | 0.00 | 0.00 | 71 | 1004.7 |
| 20260505072521 | 10 | 140 | 11.3 | 0.0 | 0.00 | 0.00 | 0.00 | 72 | 1004.6 |
| 20260505072020 | 10 | 136 | 11.3 | 0.0 | 0.00 | 0.00 | 0.00 | 73 | 1004.5 |
| 20260505071525 | 10 | 134 | 11.3 | 0.0 | 0.00 | 0.00 | 0.00 | 75 | 1004.6 |
| 20260505071018 | 9 | 137 | 9.7 | 0.0 | 0.00 | 0.00 | 0.00 | 77 | 1004.6 |
| 20260505070518 | 9 | 142 | 6.4 | 0.0 | 0.00 | 0.00 | 0.00 | 76 | 1004.7 |
| 20260505070020 | 9 | 137 | 1.6 | 0.0 | 0.00 | 0.00 | 0.00 | 76 | 1004.6 |
| 20260505065516 | 9 | 198 | 1.6 | 0.0 | 0.00 | 0.00 | 0.00 | 76 | 1004.7 |
| 20260505065016 | 8 | 200 | 3.2 | 0.0 | 0.00 | 0.00 | 0.00 | 77 | 1004.7 |
| 20260505064516 | 8 | 133 | 6.4 | 0.0 | 0.00 | 0.00 | 0.00 | 77 | 1004.8 |
| 20260505064015 | 8 | 157 | 9.7 | 0.0 | 0.00 | 0.00 | 0.00 | 79 | 1004.8 |
| 20260505063515 | 8 | 144 | 9.7 | 0.0 | 0.00 | 0.00 | 0.00 | 79 | 1004.8 |
| 20260505063015 | 8 | 133 | 6.4 | 0.0 | 0.00 | 0.00 | 0.00 | 80 | 1004.8 |
| 20260505062514 | 8 | 135 | 4.8 | 0.0 | 0.00 | 0.00 | 0.00 | 80 | 1004.8 |
| 20260505062013 | 8 | 223 | 3.2 | 0.0 | 0.00 | 0.00 | 0.00 | 81 | 1004.8 |
| 20260505061524 | 8 | 223 | 1.6 | 0.0 | 0.00 | 0.00 | 0.00 | 81 | 1004.7 |
| 20260505061012 | 8 | 223 | 1.6 | 0.0 | 0.00 | 0.00 | 0.00 | 81 | 1004.8 |
| 20260505060512 | 8 | 222 | 4.8 | 0.0 | 0.00 | 0.00 | 0.00 | 79 | 1004.8 |
| 20260505060112 | 8 | 138 | 6.4 | 0.0 | 0.00 | 0.00 | 0.00 | 80 | 1004.8 |
| 20260505055511 | 8 | 138 | 8.0 | 0.0 | 0.00 | 0.00 | 0.00 | 80 | 1004.8 |
| 20260505055012 | 8 | 133 | 8.0 | 0.0 | 0.00 | 0.00 | 0.00 | 80 | 1004.8 |
| 20260505054518 | 8 | 133 | 8.0 | 0.0 | 0.00 | 0.00 | 0.00 | 80 | 1004.8 |
| 20260505054011 | 8 | 132 | 8.0 | 0.0 | 0.00 | 0.00 | 0.00 | 80 | 1004.8 |
| 20260505053511 | 8 | 134 | 9.7 | 0.0 | 0.00 | 0.00 | 0.00 | 80 | 1004.9 |
| 20260505053011 | 8 | 132 | 9.7 | 0.0 | 0.00 | 0.00 | 0.00 | 80 | 1004.9 |
| 20260505052509 | 8 | 130 | 8.0 | 0.0 | 0.00 | 0.00 | 0.00 | 80 | 1004.9 |
| 20260505052009 | 8 | 136 | 8.0 | 0.0 | 0.00 | 0.00 | 0.00 | 80 | 1004.9 |
| 20260505051509 | 8 | 134 | 8.0 | 0.0 | 0.00 | 0.00 | 0.00 | 81 | 1005.0 |
| 20260505051009 | 8 | 137 | 6.4 | 0.0 | 0.00 | 0.00 | 0.00 | 80 | 1004.9 |
| 20260505050508 | 8 | 138 | 6.4 | 0.0 | 0.00 | 0.00 | 0.00 | 80 | 1004.9 |
| 20260505041503 | 9 | 132 | 6.4 | 0.0 | 0.00 | 0.00 | 0.00 | 78 | 1004.9 |
| 20260505041002 | 9 | 131 | 6.4 | 0.0 | 0.00 | 0.00 | 0.00 | 79 | 1004.9 |
| 20260505040501 | 9 | 131 | 6.4 | 0.0 | 0.00 | 0.00 | 0.00 | 78 | 1004.9 |
| 20260505040100 | 9 | 130 | 6.4 | 0.0 | 0.00 | 0.00 | 0.00 | 78 | 1004.8 |
| 20260505035558 | 9 | 130 | 8.0 | 0.0 | 0.00 | 0.00 | 0.00 | 78 | 1004.9 |
| 20260505035100 | 10 | 131 | 8.0 | 0.0 | 0.00 | 0.00 | 0.00 | 78 | 1004.8 |
| 20260505034558 | 10 | 131 | 8.0 | 0.0 | 0.00 | 0.00 | 0.00 | 77 | 1004.8 |
| 20260505034056 | 10 | 131 | 8.0 | 0.0 | 0.00 | 0.00 | 0.00 | 77 | 1004.7 |
| 20260505033556 | 10 | 132 | 9.7 | 0.0 | 0.00 | 0.00 | 0.00 | 77 | 1004.8 |
| 20260505033056 | 10 | 132 | 8.0 | 0.0 | 0.00 | 0.00 | 0.00 | 77 | 1004.8 |
| 20260505032554 | 10 | 134 | 8.0 | 0.0 | 0.00 | 0.00 | 0.00 | 76 | 1004.8 |
| 20260505032053 | 10 | 138 | 8.0 | 0.0 | 0.00 | 0.00 | 0.00 | 75 | 1004.9 |
| 20260505031556 | 10 | 138 | 8.0 | 0.0 | 0.00 | 0.00 | 0.00 | 75 | 1004.9 |
| 20260505031052 | 10 | 140 | 8.0 | 0.0 | 0.00 | 0.00 | 0.00 | 75 | 1004.8 |
| 20260505030556 | 10 | 142 | 8.0 | 0.0 | 0.00 | 0.00 | 0.00 | 74 | 1004.8 |
| 20260505030051 | 10 | 146 | 6.4 | 0.0 | 0.00 | 0.00 | 0.00 | 74 | 1004.8 |
| 20260505025551 | 10 | 157 | 6.4 | 0.0 | 0.00 | 0.00 | 0.00 | 74 | 1004.8 |
| 20260505025050 | 11 | 161 | 6.4 | 0.0 | 0.00 | 0.00 | 0.00 | 74 | 1004.8 |
| 20260505024606 | 11 | 161 | 4.8 | 0.0 | 0.00 | 0.00 | 0.00 | 73 | 1004.7 |
| 20260505024054 | 11 | 161 | 4.8 | 0.0 | 0.00 | 0.00 | 0.00 | 75 | 1004.8 |
| 20260505023550 | 11 | 161 | 4.8 | 0.0 | 0.00 | 0.00 | 0.00 | 75 | 1004.8 |
| 20260505023050 | 11 | 161 | 4.8 | 0.0 | 0.00 | 0.00 | 0.00 | 75 | 1004.8 |
| 20260505022550 | 11 | 161 | 4.8 | 0.0 | 0.00 | 0.00 | 0.00 | 74 | 1004.9 |
| 20260505022051 | 11 | 162 | 4.8 | 0.0 | 0.00 | 0.00 | 0.00 | 74 | 1004.9 |
| 20260505021604 | 11 | 161 | 4.8 | 0.0 | 0.00 | 0.00 | 0.00 | 73 | 1004.9 |
| 20260505021051 | 12 | 161 | 4.8 | 0.0 | 0.00 | 0.00 | 0.00 | 73 | 1004.9 |
| 20260505020549 | 12 | 161 | 4.8 | 0.0 | 0.00 | 0.00 | 0.00 | 73 | 1005.0 |
| 20260505020049 | 12 | 162 | 3.2 | 0.0 | 0.00 | 0.00 | 0.00 | 70 | 1005.0 |
| 20260505015548 | 12 | 162 | 1.6 | 0.0 | 0.00 | 0.00 | 0.00 | 70 | 1005.0 |
| 20260505015048 | 12 | 162 | 0.0 | 0.0 | 0.00 | 0.00 | 0.00 | 69 | 1005.0 |
| 20260505014548 | 12 | 162 | 1.6 | 0.0 | 0.00 | 0.00 | 0.00 | 69 | 1004.9 |
| 20260505014048 | 12 | 162 | 3.2 | 0.0 | 0.00 | 0.00 | 0.00 | 69 | 1005.0 |
| 20260505013547 | 12 | 162 | 8.0 | 0.0 | 0.00 | 0.00 | 0.00 | 68 | 1005.0 |
| 20260505013046 | 12 | 142 | 9.7 | 0.0 | 0.00 | 0.00 | 0.00 | 66 | 1004.9 |
| 20260505012546 | 13 | 138 | 9.7 | 0.0 | 0.00 | 0.00 | 0.00 | 66 | 1004.9 |
| 20260505012048 | 13 | 140 | 8.0 | 0.0 | 0.00 | 0.00 | 0.00 | 65 | 1004.8 |
| 20260505011554 | 13 | 138 | 9.7 | 0.0 | 0.00 | 0.00 | 0.00 | 64 | 1004.7 |
| 20260505011046 | 13 | 137 | 9.7 | 0.0 | 0.00 | 0.00 | 0.00 | 63 | 1004.7 |
| 20260505010548 | 13 | 140 | 9.7 | 0.0 | 0.00 | 0.00 | 0.00 | 63 | 1004.6 |
| 20260505010046 | 13 | 136 | 9.7 | 0.0 | 0.00 | 0.00 | 0.00 | 62 | 1004.6 |
| 20260505005545 | 14 | 137 | 9.7 | 0.0 | 0.00 | 0.00 | 0.00 | 62 | 1004.6 |
| 20260505005045 | 14 | 140 | 8.0 | 0.0 | 0.00 | 0.00 | 0.00 | 61 | 1004.5 |
| 20260505004547 | 14 | 137 | 8.0 | 0.0 | 0.00 | 0.00 | 0.00 | 60 | 1004.5 |
| 20260505004044 | 15 | 148 | 8.0 | 0.0 | 0.00 | 0.00 | 0.00 | 59 | 1004.4 |
| 20260505003544 | 15 | 130 | 8.0 | 0.0 | 0.00 | 0.00 | 0.00 | 59 | 1004.5 |
| 20260505003044 | 15 | 136 | 8.0 | 0.0 | 0.00 | 0.00 | 0.00 | 58 | 1004.4 |
| 20260505002545 | 15 | 134 | 9.7 | 0.0 | 0.00 | 0.00 | 0.00 | 59 | 1004.3 |
| 20260505002045 | 16 | 136 | 9.7 | 0.0 | 0.00 | 0.00 | 0.00 | 59 | 1004.2 |
| 20260505001545 | 16 | 136 | 8.0 | 0.0 | 0.00 | 0.00 | 0.00 | 59 | 1004.2 |
| 20260505001044 | 16 | 136 | 8.0 | 0.0 | 0.00 | 0.00 | 0.00 | 57 | 1004.3 |
| 20260505000545 | 17 | 137 | 8.0 | 0.0 | 0.00 | 0.00 | 0.00 | 52 | 1004.2 |
| 20260505000045 | 17 | 140 | 6.4 | 0.0 | 0.00 | 0.00 | 0.00 | 52 | 1004.2 |
| 20260504235543 | 17 | 186 | 6.4 | 0.0 | 0.00 | 0.00 | 0.00 | 50 | 1004.3 |
| 20260504235043 | 17 | 186 | 3.2 | 0.0 | 0.00 | 0.00 | 0.00 | 51 | 1004.4 |
| 20260504234542 | 18 | 226 | 1.6 | 0.0 | 0.00 | 0.00 | 0.00 | 50 | 1004.4 |
| 20260504234045 | 18 | 227 | 1.6 | 0.0 | 0.00 | 0.00 | 0.00 | 45 | 1004.2 |
| 20260504233542 | 18 | 228 | 6.4 | 0.0 | 0.00 | 0.00 | 0.00 | 45 | 1004.1 |
| 20260504233055 | 18 | 225 | 8.0 | 0.0 | 0.00 | 0.00 | 0.00 | 47 | 1004.1 |
| 20260504232542 | 18 | 248 | 9.7 | 0.0 | 0.00 | 0.00 | 0.00 | 47 | 1003.9 |
| 20260504232042 | 18 | 221 | 9.7 | 0.0 | 0.00 | 0.00 | 0.00 | 50 | 1003.9 |
| 20260504231541 | 18 | 225 | 12.9 | 0.0 | 0.00 | 0.00 | 0.00 | 49 | 1004.0 |
| 20260504231041 | 19 | 234 | 16.1 | 0.0 | 0.00 | 0.00 | 0.00 | 49 | 1004.0 |
| 20260504230541 | 19 | 232 | 17.7 | 0.0 | 0.00 | 0.00 | 0.00 | 46 | 1004.0 |
| 20260504230043 | 19 | 219 | 16.1 | 0.0 | 0.00 | 0.00 | 0.00 | 47 | 1003.9 |
| 20260504225540 | 20 | 251 | 14.5 | 0.0 | 0.00 | 0.00 | 0.00 | 46 | 1003.9 |
| 20260504225039 | 20 | 241 | 17.7 | 0.0 | 0.00 | 0.00 | 0.00 | 49 | 1003.9 |
| 20260504224539 | 20 | 218 | 17.7 | 0.0 | 0.00 | 0.00 | 0.00 | 45 | 1003.8 |
| 20260504224041 | 20 | 211 | 14.5 | 0.0 | 0.00 | 0.00 | 0.00 | 44 | 1003.7 |
| 20260504223538 | 20 | 250 | 16.1 | 0.0 | 0.00 | 0.00 | 0.00 | 41 | 1003.6 |
| 20260504223038 | 20 | 225 | 12.9 | 0.0 | 0.00 | 0.00 | 0.00 | 42 | 1003.5 |
| 20260504222537 | 20 | 234 | 12.9 | 0.0 | 0.00 | 0.00 | 0.00 | 48 | 1003.5 |
| 20260504222035 | 20 | 232 | 14.5 | 0.0 | 0.00 | 0.00 | 0.00 | 44 | 1003.6 |
| 20260504221538 | 20 | 225 | 14.5 | 0.0 | 0.00 | 0.00 | 0.00 | 43 | 1003.7 |
| 20260504221033 | 20 | 230 | 16.1 | 0.0 | 0.00 | 0.00 | 0.00 | 44 | 1003.8 |
| 20260504220533 | 20 | 240 | 17.7 | 0.0 | 0.00 | 0.00 | 0.00 | 47 | 1003.8 |
| 20260504220030 | 20 | 250 | 16.1 | 0.0 | 0.00 | 0.00 | 0.00 | 47 | 1003.9 |
| 20260504215530 | 20 | 219 | 12.9 | 0.0 | 0.00 | 0.00 | 0.00 | 44 | 1003.9 |
| 20260504215030 | 20 | 227 | 16.1 | 0.0 | 0.00 | 0.00 | 0.00 | 47 | 1003.9 |
| 20260504214529 | 20 | 221 | 17.7 | 0.0 | 0.00 | 0.00 | 0.00 | 46 | 1003.9 |
| 20260504214028 | 20 | 215 | 16.1 | 0.0 | 0.00 | 0.00 | 0.00 | 47 | 1004.0 |
| 20260504213530 | 20 | 238 | 16.1 | 0.0 | 0.00 | 0.00 | 0.00 | 46 | 1004.0 |
| 20260504213028 | 19 | 230 | 17.7 | 0.0 | 0.00 | 0.00 | 0.00 | 45 | 1004.0 |
| 20260504212528 | 19 | 224 | 17.7 | 0.0 | 0.00 | 0.00 | 0.00 | 46 | 1004.0 |
| 20260504212028 | 19 | 221 | 19.3 | 0.0 | 0.00 | 0.00 | 0.00 | 52 | 1004.0 |
| 20260504211526 | 19 | 247 | 20.9 | 0.0 | 0.00 | 0.00 | 0.00 | 48 | 1004.1 |
| 20260504211027 | 19 | 239 | 20.9 | 0.0 | 0.00 | 0.00 | 0.00 | 48 | 1004.1 |
| 20260504210527 | 19 | 246 | 19.3 | 0.0 | 0.00 | 0.00 | 0.00 | 50 | 1004.1 |
| 20260504210025 | 19 | 219 | 17.7 | 0.0 | 0.00 | 0.00 | 0.00 | 48 | 1004.1 |
| 20260504205529 | 20 | 229 | 17.7 | 0.0 | 0.00 | 0.00 | 0.00 | 48 | 1004.2 |
| 20260504205023 | 19 | 232 | 17.7 | 0.0 | 0.00 | 0.00 | 0.00 | 51 | 1004.2 |
| 20260504204531 | 19 | 223 | 20.9 | 0.0 | 0.00 | 0.00 | 0.00 | 49 | 1004.2 |
| 20260504204023 | 19 | 229 | 22.5 | 0.0 | 0.00 | 0.00 | 0.00 | 47 | 1004.2 |
| 20260504203523 | 18 | 223 | 20.9 | 0.0 | 0.00 | 0.00 | 0.00 | 49 | 1004.3 |
| 20260504203025 | 18 | 207 | 17.7 | 0.0 | 0.00 | 0.00 | 0.00 | 53 | 1004.3 |
| 20260504202522 | 18 | 250 | 17.7 | 0.0 | 0.00 | 0.00 | 0.00 | 52 | 1004.3 |
| 20260504202022 | 18 | 242 | 19.3 | 0.0 | 0.00 | 0.00 | 0.00 | 55 | 1004.3 |
| 20260504201521 | 19 | 234 | 16.1 | 0.0 | 0.00 | 0.00 | 0.00 | 54 | 1004.3 |
| 20260504201021 | 19 | 258 | 14.5 | 0.0 | 0.00 | 0.00 | 0.00 | 55 | 1004.4 |
| 20260504200520 | 19 | 236 | 16.1 | 0.0 | 0.00 | 0.00 | 0.00 | 52 | 1004.4 |
| 20260504200020 | 20 | 235 | 17.7 | 0.0 | 0.00 | 0.00 | 0.00 | 51 | 1004.5 |
| 20260504195518 | 20 | 249 | 20.9 | 0.0 | 0.00 | 0.00 | 0.00 | 50 | 1004.6 |
| 20260504195018 | 20 | 239 | 20.9 | 0.0 | 0.00 | 0.00 | 0.00 | 50 | 1004.7 |
| 20260504194518 | 20 | 241 | 24.1 | 0.0 | 0.00 | 0.00 | 0.00 | 48 | 1004.8 |
| 20260504194017 | 20 | 234 | 27.4 | 0.0 | 0.00 | 0.00 | 0.00 | 51 | 1004.9 |
| 20260504193515 | 19 | 227 | 27.4 | 0.0 | 0.00 | 0.00 | 0.00 | 51 | 1004.9 |
| 20260504193015 | 19 | 221 | 27.4 | 0.0 | 0.00 | 0.00 | 0.00 | 46 | 1004.9 |
| 20260504192514 | 19 | 244 | 25.7 | 0.0 | 0.00 | 0.00 | 0.00 | 55 | 1005.0 |
| 20260504192012 | 19 | 236 | 29.0 | 0.0 | 0.00 | 0.00 | 0.00 | 54 | 1005.1 |
| 20260504191514 | 18 | 246 | 32.2 | 0.0 | 0.00 | 0.00 | 0.00 | 53 | 1005.1 |
| 20260504191012 | 18 | 247 | 32.2 | 0.0 | 0.00 | 0.00 | 0.00 | 55 | 1005.2 |
| 20260504190511 | 19 | 241 | 27.4 | 0.0 | 0.00 | 0.00 | 0.00 | 54 | 1005.3 |
| 20260504190010 | 19 | 252 | 32.2 | 0.0 | 0.00 | 0.00 | 0.00 | 53 | 1005.3 |
| 20260504185509 | 19 | 247 | 35.4 | 0.0 | 0.00 | 0.00 | 0.00 | 53 | 1005.3 |
| 20260504185009 | 19 | 255 | 33.8 | 0.0 | 0.00 | 0.00 | 0.00 | 55 | 1005.4 |
| 20260504184513 | 19 | 252 | 32.2 | 0.0 | 0.00 | 0.00 | 0.00 | 57 | 1005.4 |
| 20260504184008 | 19 | 250 | 29.0 | 0.0 | 0.00 | 0.00 | 0.00 | 57 | 1005.4 |
| 20260504183507 | 18 | 244 | 25.7 | 0.0 | 0.00 | 0.00 | 0.00 | 54 | 1005.4 |
| 20260504183005 | 18 | 248 | 24.1 | 0.0 | 0.00 | 0.00 | 0.00 | 57 | 1005.4 |
| 20260504182504 | 18 | 251 | 22.5 | 0.0 | 0.00 | 0.00 | 0.00 | 53 | 1005.5 |
| 20260504182004 | 17 | 261 | 25.7 | 0.0 | 0.00 | 0.00 | 0.00 | 57 | 1005.5 |